createdAt,value
2019-01-31T00:00:17.590Z,8.03
2019-01-31T00:03:25.082Z,7.27
2019-01-31T00:06:07.436Z,7.40
2019-01-31T00:09:29.898Z,8.37
2019-01-31T00:12:07.988Z,8.20
2019-01-31T00:15:04.613Z,8.30
2019-01-31T00:18:17.874Z,7.73
2019-01-31T00:21:05.749Z,7.90
2019-01-31T00:24:24.427Z,7.97
2019-01-31T00:27:43.518Z,6.70
2019-01-31T00:30:44.740Z,6.93
2019-01-31T00:33:37.282Z,7.00
2019-01-31T00:36:30.310Z,8.50
2019-01-31T00:39:17.852Z,9.30
2019-01-31T00:42:18.113Z,9.07
2019-01-31T00:45:37.831Z,9.20
2019-01-31T00:48:41.919Z,9.70
2019-01-31T00:51:46.821Z,8.67
2019-01-31T00:54:51.540Z,8.60
2019-01-31T00:57:53.143Z,8.27
2019-01-31T01:00:42.042Z,8.53
2019-01-31T01:03:43.083Z,9.37
2019-01-31T01:06:27.084Z,9.53
2019-01-31T01:09:34.690Z,9.00
2019-01-31T01:12:41.361Z,19.93
2019-01-31T01:15:56.641Z,15.37
2019-01-31T01:18:38.644Z,10.17
2019-01-31T01:21:44.649Z,13.70
2019-01-31T01:24:49.989Z,7.90
2019-01-31T01:28:10.323Z,8.87
2019-01-31T01:31:17.915Z,9.03
2019-01-31T01:34:06.310Z,7.20
2019-01-31T01:36:48.204Z,7.33
2019-01-31T01:40:01.500Z,7.80
2019-01-31T01:43:13.411Z,7.57
2019-01-31T01:46:21.884Z,6.63
2019-01-31T01:49:19.290Z,5.93
2019-01-31T01:52:20.343Z,6.17
2019-01-31T01:55:12.851Z,7.10
2019-01-31T02:01:49.660Z,6.57
2019-01-31T02:04:53.105Z,7.07
2019-01-31T02:08:02.696Z,6.43
2019-01-31T02:10:57.066Z,7.40
2019-01-31T02:13:44.910Z,7.00
2019-01-31T02:16:38.315Z,7.23
2019-01-31T02:19:38.162Z,6.40
2019-01-31T02:22:27.175Z,9.77
2019-01-31T02:25:06.298Z,6.80
2019-01-31T02:28:24.902Z,7.30
2019-01-31T02:31:31.247Z,8.27
2019-01-31T02:34:37.456Z,7.17
2019-01-31T02:37:16.147Z,7.73
2019-01-31T02:40:24.939Z,7.20
2019-01-31T02:43:13.292Z,7.83
2019-01-31T02:46:18.393Z,7.53
2019-01-31T02:49:09.438Z,7.63
2019-01-31T02:52:18.667Z,7.53
2019-01-31T02:55:08.224Z,8.33
2019-01-31T02:58:27.531Z,7.27
2019-01-31T03:01:26.249Z,7.63
2019-01-31T03:04:35.162Z,7.13
2019-01-31T03:07:28.989Z,7.37
2019-01-31T03:10:17.439Z,7.53
2019-01-31T03:13:23.278Z,7.00
2019-01-31T03:16:33.027Z,7.30
2019-01-31T03:19:44.378Z,7.27
2019-01-31T03:22:41.221Z,7.47
2019-01-31T03:25:41.088Z,7.67
2019-01-31T03:28:47.136Z,8.87
2019-01-31T03:31:53.911Z,8.93
2019-01-31T03:34:51.354Z,8.87
2019-01-31T03:37:53.705Z,9.07
2019-01-31T03:40:51.151Z,8.93
2019-01-31T03:43:38.578Z,9.07
2019-01-31T03:46:40.341Z,7.87
2019-01-31T03:49:20.785Z,7.53
2019-01-31T03:52:10.950Z,7.90
2019-01-31T03:55:32.440Z,9.20
2019-01-31T03:58:24.808Z,8.43
2019-01-31T04:01:43.203Z,8.47
2019-01-31T04:04:23.990Z,7.73
2019-01-31T04:06:53.394Z,8.60
2019-01-31T04:09:22.778Z,9.90
2019-01-31T04:11:53.081Z,9.60
2019-01-31T04:14:22.502Z,8.47
2019-01-31T04:16:51.996Z,8.63
2019-01-31T04:19:28.190Z,9.47
2019-01-31T04:22:12.947Z,9.57
2019-01-31T04:24:49.348Z,9.13
2019-01-31T04:27:22.875Z,9.20
2019-01-31T04:29:53.874Z,9.33
2019-01-31T04:32:28.864Z,9.70
2019-01-31T04:35:02.598Z,9.67
2019-01-31T04:37:34.647Z,9.93
2019-01-31T04:40:06.121Z,10.03
2019-01-31T04:42:37.301Z,11.10
2019-01-31T04:45:14.216Z,11.10
2019-01-31T04:47:56.260Z,11.77
2019-01-31T04:50:25.410Z,11.87
2019-01-31T04:53:00.595Z,11.67
2019-01-31T04:55:31.127Z,10.47
2019-01-31T04:58:10.624Z,11.50
2019-01-31T05:00:41.438Z,12.53
2019-01-31T05:03:27.714Z,11.70
2019-01-31T05:06:02.740Z,12.27
2019-01-31T05:08:36.037Z,12.27
2019-01-31T05:11:09.165Z,11.87
2019-01-31T05:13:41.472Z,11.70
2019-01-31T05:16:10.907Z,12.00
2019-01-31T05:18:40.268Z,11.33
2019-01-31T05:21:09.766Z,11.40
2019-01-31T05:23:39.580Z,11.47
2019-01-31T05:26:08.984Z,11.27
2019-01-31T05:28:38.525Z,12.40
2019-01-31T05:31:07.937Z,11.20
2019-01-31T05:33:38.441Z,11.40
2019-01-31T05:36:07.766Z,11.47
2019-01-31T05:38:37.173Z,11.37
2019-01-31T05:41:08.960Z,10.63
2019-01-31T05:43:39.439Z,11.43
2019-01-31T05:46:19.283Z,12.33
2019-01-31T05:48:48.688Z,15.93
2019-01-31T05:51:18.085Z,11.97
2019-01-31T05:53:47.478Z,11.67
2019-01-31T05:56:16.884Z,12.13
2019-01-31T05:58:48.309Z,12.30
2019-01-31T06:01:17.683Z,12.47
2019-01-31T06:03:47.043Z,13.63
2019-01-31T06:06:16.399Z,14.43
2019-01-31T06:08:45.787Z,14.67
2019-01-31T06:11:15.307Z,14.20
2019-01-31T06:13:44.712Z,19.03
2019-01-31T06:16:14.067Z,15.30
2019-01-31T06:18:43.531Z,15.87
2019-01-31T06:21:12.924Z,15.27
2019-01-31T06:23:42.343Z,15.80
2019-01-31T06:26:11.710Z,15.83
2019-01-31T06:28:41.098Z,15.20
2019-01-31T06:31:10.511Z,15.03
2019-01-31T06:33:39.946Z,15.10
2019-01-31T06:36:09.318Z,15.37
2019-01-31T06:38:38.676Z,15.73
2019-01-31T06:41:17.983Z,16.67
2019-01-31T06:43:39.118Z,16.43
2019-01-31T06:46:08.493Z,15.93
2019-01-31T06:48:37.851Z,17.00
2019-01-31T06:51:07.303Z,16.37
2019-01-31T06:53:36.638Z,16.97
2019-01-31T06:56:06.019Z,15.70
2019-01-31T06:58:35.422Z,16.90
2019-01-31T07:01:04.878Z,16.20
2019-01-31T07:03:34.284Z,16.13
2019-01-31T07:06:03.671Z,15.67
2019-01-31T07:08:33.052Z,16.60
2019-01-31T07:11:02.504Z,18.27
2019-01-31T07:13:33.871Z,19.63
2019-01-31T07:16:02.978Z,21.00
2019-01-31T07:18:32.371Z,23.87
2019-01-31T07:21:01.771Z,21.77
2019-01-31T07:23:31.143Z,20.33
2019-01-31T07:26:00.500Z,23.20
2019-01-31T07:28:29.855Z,22.20
2019-01-31T07:30:59.224Z,25.17
2019-01-31T07:33:28.605Z,28.77
2019-01-31T07:35:57.995Z,32.33
2019-01-31T07:38:27.417Z,33.17
2019-01-31T07:40:56.973Z,32.80
2019-01-31T07:43:28.780Z,32.23
2019-01-31T07:45:58.187Z,31.70
2019-01-31T07:48:27.559Z,31.93
2019-01-31T07:50:56.911Z,31.07
2019-01-31T07:53:26.312Z,31.43
2019-01-31T07:55:55.701Z,31.03
2019-01-31T07:58:25.046Z,31.73
2019-01-31T08:00:54.487Z,30.53
2019-01-31T08:03:23.958Z,30.50
2019-01-31T08:05:53.394Z,30.53
2019-01-31T08:08:22.764Z,32.50
2019-01-31T08:10:52.168Z,31.07
2019-01-31T08:13:21.568Z,32.07
2019-01-31T08:15:51.009Z,34.03
2019-01-31T08:18:20.330Z,30.20
2019-01-31T08:20:49.678Z,29.33
2019-01-31T08:23:19.054Z,28.77
2019-01-31T08:25:48.454Z,25.60
2019-01-31T08:28:17.814Z,25.23
2019-01-31T08:30:47.163Z,28.47
2019-01-31T08:33:16.567Z,27.73
2019-01-31T08:35:52.250Z,24.40
2019-01-31T08:38:23.696Z,25.03
2019-01-31T08:40:53.050Z,23.07
2019-01-31T08:43:22.422Z,21.77
2019-01-31T08:45:51.893Z,20.30
2019-01-31T08:48:21.255Z,18.77
2019-01-31T08:50:50.641Z,14.77
2019-01-31T08:53:20.030Z,11.93
2019-01-31T08:55:58.799Z,11.50
2019-01-31T08:58:28.244Z,10.30
2019-01-31T09:00:57.953Z,12.70
2019-01-31T09:03:27.274Z,12.67
2019-01-31T09:05:56.680Z,12.83
2019-01-31T09:08:26.051Z,15.00
2019-01-31T09:10:55.540Z,15.57
2019-01-31T09:13:27.175Z,14.10
2019-01-31T09:15:56.536Z,15.17
2019-01-31T09:18:25.937Z,14.80
2019-01-31T09:20:59.917Z,16.07
2019-01-31T09:24:19.219Z,17.83
2019-01-31T09:27:37.629Z,20.07
2019-01-31T09:31:02.956Z,24.43
2019-01-31T09:33:45.875Z,20.47
2019-01-31T09:36:45.266Z,19.63
2019-01-31T09:39:37.251Z,17.87
2019-01-31T09:42:27.046Z,18.77
2019-01-31T09:45:28.386Z,20.40
2019-01-31T09:48:34.417Z,18.17
2019-01-31T09:51:40.512Z,18.80
2019-01-31T09:54:53.175Z,19.33
2019-01-31T09:57:53.724Z,16.63
2019-01-31T10:01:23.393Z,17.70
2019-01-31T10:04:17.330Z,21.83
2019-01-31T10:07:17.662Z,19.00
2019-01-31T10:10:28.972Z,18.53
2019-01-31T10:13:53.806Z,18.80
2019-01-31T10:17:00.255Z,18.80
2019-01-31T10:19:45.703Z,17.80
2019-01-31T10:22:44.845Z,18.10
2019-01-31T10:25:41.811Z,16.00
2019-01-31T10:28:52.486Z,16.13
2019-01-31T10:31:53.698Z,15.07
2019-01-31T10:34:51.430Z,15.83
2019-01-31T10:37:57.993Z,15.80
2019-01-31T10:41:14.117Z,15.47
2019-01-31T10:44:39.635Z,18.70
2019-01-31T10:48:11.310Z,19.57
2019-01-31T10:51:17.861Z,18.50
2019-01-31T10:53:53.664Z,18.37
2019-01-31T10:57:15.878Z,19.03
2019-01-31T11:00:21.372Z,17.40
2019-01-31T11:03:32.182Z,23.10
2019-01-31T11:06:46.022Z,19.83
2019-01-31T11:09:41.140Z,18.33
2019-01-31T11:13:00.286Z,18.13
2019-01-31T11:16:13.211Z,18.50
2019-01-31T11:19:12.547Z,18.43
2019-01-31T11:22:22.856Z,17.20
2019-01-31T11:25:28.260Z,19.03
2019-01-31T11:28:39.403Z,18.07
2019-01-31T11:31:56.009Z,15.33
2019-01-31T11:34:49.739Z,14.83
2019-01-31T11:37:41.909Z,14.80
2019-01-31T11:40:52.233Z,15.13
2019-01-31T11:43:54.453Z,14.83
2019-01-31T11:47:04.683Z,15.53
2019-01-31T11:50:15.103Z,15.70
2019-01-31T11:53:25.280Z,17.00
2019-01-31T11:56:35.652Z,18.17
2019-01-31T11:59:07.578Z,17.37
2019-01-31T12:01:37.706Z,17.03
2019-01-31T12:04:09.967Z,18.43
2019-01-31T12:06:39.484Z,19.50
2019-01-31T12:09:29.264Z,17.57
2019-01-31T12:11:58.661Z,18.77
2019-01-31T12:14:28.044Z,18.43
2019-01-31T12:16:57.524Z,18.00
2019-01-31T12:19:27.003Z,17.80
2019-01-31T12:21:56.591Z,17.60
2019-01-31T12:24:25.966Z,19.03
2019-01-31T12:26:55.326Z,18.47
2019-01-31T12:29:24.649Z,18.27
2019-01-31T12:31:53.999Z,18.43
2019-01-31T12:34:23.371Z,19.30
2019-01-31T12:36:52.781Z,18.93
2019-01-31T12:39:22.147Z,20.03
2019-01-31T12:41:51.604Z,19.57
2019-01-31T12:44:20.984Z,18.57
2019-01-31T12:46:50.341Z,19.33
2019-01-31T12:49:19.726Z,19.13
2019-01-31T12:51:49.189Z,19.17
2019-01-31T12:54:18.676Z,19.80
2019-01-31T12:56:48.134Z,17.93
2019-01-31T12:59:17.509Z,17.97
2019-01-31T13:01:46.906Z,19.13
2019-01-31T13:04:16.294Z,18.17
2019-01-31T13:06:45.747Z,17.13
2019-01-31T13:09:15.214Z,18.63
2019-01-31T13:11:44.607Z,17.80
2019-01-31T13:14:14.002Z,16.73
2019-01-31T13:16:43.566Z,18.37
2019-01-31T13:19:13.037Z,17.50
2019-01-31T13:21:42.627Z,19.10
2019-01-31T13:24:12.053Z,19.80
2019-01-31T13:26:41.423Z,18.37
2019-01-31T13:29:10.821Z,20.07
2019-01-31T13:31:40.236Z,21.03
2019-01-31T13:34:09.602Z,22.60
2019-01-31T13:36:38.961Z,23.70
2019-01-31T13:39:14.269Z,21.83
2019-01-31T13:41:43.754Z,25.17
2019-01-31T13:44:13.091Z,24.47
2019-01-31T13:46:42.450Z,24.90
2019-01-31T13:49:11.853Z,24.33
2019-01-31T13:51:41.249Z,22.07
2019-01-31T13:54:12.445Z,19.67
2019-01-31T13:56:45.679Z,20.43
2019-01-31T13:59:13.339Z,17.57
2019-01-31T14:01:42.719Z,20.13
2019-01-31T14:04:12.436Z,23.03
2019-01-31T14:06:41.855Z,25.53
2019-01-31T14:09:12.588Z,25.97
2019-01-31T14:11:41.935Z,26.63
2019-01-31T14:14:11.288Z,25.97
2019-01-31T14:16:47.570Z,23.27
2019-01-31T14:19:11.820Z,25.40
2019-01-31T14:21:44.005Z,26.03
2019-01-31T14:24:12.311Z,27.27
2019-01-31T14:26:41.843Z,28.10
2019-01-31T14:29:11.310Z,27.20
2019-01-31T14:31:40.837Z,28.30
2019-01-31T14:34:10.231Z,29.83
2019-01-31T14:36:39.848Z,31.87
2019-01-31T14:39:10.375Z,33.17
2019-01-31T14:41:39.760Z,31.93
2019-01-31T14:44:19.879Z,31.73
2019-01-31T14:46:40.624Z,33.03
2019-01-31T14:49:10.050Z,33.90
2019-01-31T14:51:39.447Z,33.03
2019-01-31T14:54:08.808Z,33.80
2019-01-31T14:56:38.175Z,35.80
2019-01-31T14:59:07.595Z,26.23
2019-01-31T15:01:37.049Z,23.77
2019-01-31T15:04:06.561Z,31.10
2019-01-31T15:06:36.045Z,32.90
2019-01-31T15:09:08.850Z,22.40
2019-01-31T15:11:38.419Z,14.83
2019-01-31T15:14:07.963Z,17.63
2019-01-31T15:16:37.346Z,16.87
2019-01-31T15:19:06.730Z,16.73
2019-01-31T15:21:36.128Z,19.10
2019-01-31T15:24:05.773Z,7.37
2019-01-31T15:26:35.135Z,5.30
2019-01-31T15:29:05.019Z,2.07
2019-01-31T15:31:35.834Z,1.00
2019-01-31T15:34:05.525Z,1.07
2019-01-31T15:36:34.912Z,1.17
2019-01-31T15:39:07.002Z,1.13
2019-01-31T15:41:36.395Z,1.27
2019-01-31T15:44:07.547Z,1.20
2019-01-31T15:46:40.188Z,2.00
2019-01-31T15:49:09.667Z,1.53
2019-01-31T15:51:39.186Z,2.00
2019-01-31T15:54:08.743Z,2.23
2019-01-31T15:56:38.229Z,1.67
2019-01-31T15:59:08.954Z,2.00
2019-01-31T16:01:38.298Z,1.90
2019-01-31T16:04:07.793Z,2.23
2019-01-31T16:06:37.209Z,2.00
2019-01-31T16:09:09.383Z,1.53
2019-01-31T16:11:38.799Z,2.30
2019-01-31T16:14:08.291Z,2.33
2019-01-31T16:16:37.751Z,2.50
2019-01-31T16:19:07.123Z,2.47
2019-01-31T16:21:36.508Z,2.50
2019-01-31T16:24:06.087Z,2.67
2019-01-31T16:26:36.309Z,2.40
2019-01-31T16:29:05.926Z,2.63
2019-01-31T16:31:38.452Z,2.10
2019-01-31T16:34:07.770Z,2.40
2019-01-31T16:36:37.147Z,2.27
2019-01-31T16:39:09.770Z,2.43
2019-01-31T16:41:39.256Z,2.53
2019-01-31T16:44:10.247Z,2.77
2019-01-31T16:46:39.695Z,3.70
2019-01-31T16:49:09.075Z,3.90
2019-01-31T16:51:38.580Z,4.40
2019-01-31T16:54:07.877Z,3.20
2019-01-31T16:56:37.322Z,3.00
2019-01-31T16:59:06.679Z,3.63
2019-01-31T17:01:36.137Z,3.33
2019-01-31T17:04:06.015Z,2.80
2019-01-31T17:06:35.388Z,3.10
2019-01-31T17:09:08.064Z,2.70
2019-01-31T17:11:40.299Z,4.10
2019-01-31T17:14:09.699Z,4.20
2019-01-31T17:16:39.050Z,6.20
2019-01-31T17:19:08.482Z,5.93
2019-01-31T17:21:38.127Z,5.93
2019-01-31T17:24:07.504Z,5.10
2019-01-31T17:26:36.874Z,3.70
2019-01-31T17:29:06.456Z,2.63
2019-01-31T17:31:36.106Z,3.20
2019-01-31T17:34:05.512Z,3.30
2019-01-31T17:36:34.983Z,3.10
2019-01-31T17:39:06.908Z,3.53
2019-01-31T17:41:36.295Z,4.13
2019-01-31T17:44:05.841Z,4.10
2019-01-31T17:46:35.209Z,3.80
2019-01-31T17:49:05.469Z,5.20
2019-01-31T17:51:34.959Z,5.40
2019-01-31T17:54:04.764Z,8.90
2019-01-31T17:56:34.093Z,10.37
2019-01-31T17:59:03.460Z,11.20
2019-01-31T18:01:32.857Z,9.53
2019-01-31T18:04:02.306Z,8.43
2019-01-31T18:06:31.709Z,11.20
2019-01-31T18:09:01.106Z,10.00
2019-01-31T18:11:30.464Z,8.57
2019-01-31T18:13:59.904Z,9.03
2019-01-31T18:16:29.307Z,6.70
2019-01-31T18:18:58.694Z,5.63
2019-01-31T18:21:28.171Z,4.67
2019-01-31T18:23:57.548Z,4.77
2019-01-31T18:26:26.955Z,4.90
2019-01-31T18:28:56.425Z,4.23
2019-01-31T18:31:25.774Z,4.10
2019-01-31T18:33:55.287Z,3.13
2019-01-31T18:36:24.695Z,3.67
2019-01-31T18:38:54.121Z,2.77
2019-01-31T18:41:23.560Z,3.40
2019-01-31T18:43:52.965Z,3.03
2019-01-31T18:46:22.352Z,3.77
2019-01-31T18:48:51.704Z,3.20
2019-01-31T18:51:21.179Z,3.70
2019-01-31T18:53:50.586Z,4.47
2019-01-31T18:56:20.025Z,5.07
2019-01-31T18:58:49.820Z,7.20
2019-01-31T19:01:19.279Z,7.93
2019-01-31T19:03:48.669Z,5.97
2019-01-31T19:06:18.045Z,4.53
2019-01-31T19:08:47.463Z,5.20
2019-01-31T19:11:16.881Z,2.37
2019-01-31T19:13:46.262Z,3.43
2019-01-31T19:16:15.708Z,2.50
2019-01-31T19:18:45.271Z,2.47
2019-01-31T19:21:14.683Z,2.40
2019-01-31T19:23:44.127Z,2.50
2019-01-31T19:26:13.624Z,2.83
2019-01-31T19:28:43.049Z,3.70
2019-01-31T19:31:12.439Z,5.37
2019-01-31T19:33:41.886Z,6.83
2019-01-31T19:36:11.218Z,7.63
2019-01-31T19:38:40.798Z,9.07
2019-01-31T19:41:10.190Z,9.17
2019-01-31T19:43:39.657Z,9.50
2019-01-31T19:46:16.071Z,8.57
2019-01-31T19:48:40.306Z,9.07
2019-01-31T19:51:10.120Z,9.27
2019-01-31T19:53:39.533Z,11.00
2019-01-31T19:56:08.947Z,13.07
2019-01-31T19:58:38.396Z,12.23
2019-01-31T20:01:08.188Z,11.77
2019-01-31T20:03:37.551Z,10.53
2019-01-31T20:06:06.982Z,10.60
2019-01-31T20:08:36.492Z,9.83
2019-01-31T20:11:05.980Z,7.60
2019-01-31T20:13:35.418Z,8.40
2019-01-31T20:16:05.164Z,8.20
2019-01-31T20:18:37.842Z,8.23
2019-01-31T20:21:07.364Z,8.10
2019-01-31T20:23:36.802Z,8.10
2019-01-31T20:26:06.219Z,7.80
2019-01-31T20:28:35.596Z,9.57
2019-01-31T20:31:05.179Z,7.43
2019-01-31T20:33:34.560Z,8.40
2019-01-31T20:36:04.053Z,13.10
2019-01-31T20:38:33.520Z,10.10
2019-01-31T20:41:02.917Z,10.30
2019-01-31T20:43:32.315Z,13.97
2019-01-31T20:46:01.723Z,14.07
2019-01-31T20:48:31.130Z,13.93
2019-01-31T20:51:00.496Z,15.20
2019-01-31T20:53:30.065Z,14.67
2019-01-31T20:55:59.766Z,14.93
2019-01-31T20:58:29.322Z,13.80
2019-01-31T21:00:58.732Z,14.50
2019-01-31T21:03:28.272Z,14.40
2019-01-31T21:05:57.803Z,15.07
2019-01-31T21:08:27.193Z,14.67
2019-01-31T21:10:56.580Z,14.60
2019-01-31T21:13:26.153Z,15.67
2019-01-31T21:15:55.862Z,15.67
2019-01-31T21:18:25.302Z,16.50
2019-01-31T21:20:55.364Z,17.27
2019-01-31T21:23:27.502Z,18.13
2019-01-31T21:25:57.344Z,18.30
2019-01-31T21:28:26.896Z,16.37
2019-01-31T21:30:56.473Z,17.47
2019-01-31T21:33:25.968Z,16.77
2019-01-31T21:35:55.418Z,16.50
2019-01-31T21:38:28.200Z,18.20
2019-01-31T21:41:01.332Z,12.27
2019-01-31T21:43:30.869Z,12.97
2019-01-31T21:46:00.390Z,11.90
2019-01-31T21:48:30.496Z,11.27
2019-01-31T21:51:00.109Z,8.10
2019-01-31T21:53:36.469Z,7.03
2019-01-31T21:56:02.881Z,5.00
2019-01-31T21:58:32.279Z,4.10
2019-01-31T22:01:04.758Z,4.57
2019-01-31T22:03:34.325Z,4.20
2019-01-31T22:06:03.777Z,4.80
2019-01-31T22:08:33.244Z,5.03
2019-01-31T22:11:02.786Z,4.97
2019-01-31T22:13:32.234Z,5.40
2019-01-31T22:16:01.594Z,5.83
2019-01-31T22:18:33.128Z,5.80
2019-01-31T22:21:05.274Z,5.77
2019-01-31T22:23:34.681Z,5.40
2019-01-31T22:26:04.088Z,5.03
2019-01-31T22:28:33.469Z,3.57
2019-01-31T22:31:02.819Z,4.93
2019-01-31T22:33:32.205Z,5.17
2019-01-31T22:36:02.267Z,7.03
2019-01-31T22:38:31.650Z,6.50
2019-01-31T22:41:03.302Z,7.03
2019-01-31T22:43:32.690Z,6.93
2019-01-31T22:46:02.109Z,7.47
2019-01-31T22:48:31.507Z,7.77
2019-01-31T22:51:03.405Z,10.70
2019-01-31T22:53:32.798Z,10.07
2019-01-31T22:56:02.210Z,9.27
2019-01-31T22:58:31.593Z,10.13
2019-01-31T23:01:33.575Z,9.17
2019-01-31T23:04:03.004Z,10.17
2019-01-31T23:06:32.384Z,10.43
2019-01-31T23:09:01.784Z,11.43
2019-01-31T23:11:31.330Z,12.03
2019-01-31T23:14:00.751Z,12.30
2019-01-31T23:16:30.134Z,17.10
2019-01-31T23:18:59.483Z,13.23
2019-01-31T23:21:28.894Z,12.30
2019-01-31T23:23:58.307Z,10.90
2019-01-31T23:26:27.701Z,10.53
2019-01-31T23:28:57.114Z,9.47
2019-01-31T23:31:26.645Z,7.47
2019-01-31T23:33:56.039Z,8.27
2019-01-31T23:36:25.474Z,8.30
2019-01-31T23:38:54.910Z,8.03
2019-01-31T23:41:24.343Z,8.77
2019-01-31T23:43:53.815Z,8.33
2019-01-31T23:46:23.177Z,7.80
2019-01-31T23:48:52.573Z,8.00
2019-01-31T23:51:22.004Z,6.70
2019-01-31T23:53:51.367Z,5.57
2019-01-31T23:56:20.881Z,6.33
2019-01-31T23:58:50.307Z,5.03
